Albion, Rhode Island
Current Conditions -  °F | °C
As of 9:35 AM on Wednesday 22 Oct 2014 (Local Time) from KSFZ Reporting Station
Overcast Overcast  
Wind Chill: 12°   Ceiling: 500
Heat Index: 12°   Visibility: 1.7mi
Dew Point:   Wind: 15mph
Humidity: 77%   Direction: 30°NNE
Pressure: 29.97"   Gusts: 22mph
Location:  41.95°N, 71.45°W
Report Text: KSFZ 221335Z 03013G19KT 1 3/4SM OVC005 12/08 A2997 RMK AO1
Loading
Personal Weather Stations






























Interactive Weather Map
Tropical Storm Tracking
New forecast layout! Learn more

10-Day Weather Forecast

Advertisements
Track Severe Weather on mobile